Nissho Maru No.18 — JL6369 — position and weather

sailwx.info

Track history (hours):
 
Tides and Currents Weather Stations Pressure Air Temp Water Temp Dewpoint Dewpoint Depression Visibility Wind Speed Wind Dir Waves Ship Positions

Nissho Maru No.18

Last reported at 2015-Jan-28 08:20 UTC. Time now 2015-Jan-29 20:28 UTC.
Position N 34°36' E 134°53'.

Length 65 m; draft 4 m.

Type: Tanker. MMSI: 431500465.

Date/timePositionNaut miles runAvg speedWind from/ knotsBaromVisibWave heightAir tempDewpointWater temp
2015-Jan-28 08:20N 34°36' E 134°53'810.1
2015-Jan-28 07:33N 34°37' E 135°02'1010.3
2015-Jan-28 06:33N 34°34' E 135°14'9 8.6
2015-Jan-28 05:33N 34°33' E 135°25'0 0.0
2015-Jan-28 04:33N 34°33' E 135°25'0 0.0
2015-Jan-28 03:33N 34°33' E 135°25'0 0.0
2015-Jan-28 02:33N 34°33' E 135°25'0 0.0
2015-Jan-28 01:33N 34°33' E 135°25'3 2.9
2015-Jan-28 00:25N 34°33' E 135°21'2 1.8
2015-Jan-27 23:23N 34°32' E 135°19'0 0.0
2015-Jan-27 22:29N 34°32' E 135°19'0 0.0
2015-Jan-27 21:29N 34°32' E 135°19'0 0.0
2015-Jan-27 20:23N 34°32' E 135°19'0 0.0
2015-Jan-27 19:17N 34°32' E 135°19'0 0.0
2015-Jan-27 17:23N 34°32' E 135°19'0 0.0
2015-Jan-27 15:29N 34°32' E 135°19'0 0.0
2015-Jan-27 14:17N 34°32' E 135°19'0 0.0
2015-Jan-27 13:23N 34°32' E 135°19'0 0.0
2015-Jan-27 12:23N 34°32' E 135°19'0 0.0
2015-Jan-27 11:29N 34°32' E 135°19'0 0.1
2015-Jan-27 10:24N 34°32' E 135°19'8 9.3
2015-Jan-27 09:33N 34°35' E 135°10'1111.0
2015-Jan-27 08:34N 34°36' E 134°57'2 0.1
2015-Jan-26 16:34N 34°36' E 134°55'9 9.3
2015-Jan-26 15:33N 34°32' E 135°05'1110.9
2015-Jan-26 14:33N 34°21' E 135°04'1010.3
2015-Jan-26 13:33N 34°11' E 135°05'5 2.2
2015-Jan-26 11:22N 34°07' E 135°08'0 0.0
2015-Jan-26 10:32N 34°07' E 135°08'0 0.0
2015-Jan-26 09:25N 34°07' E 135°08'0 0.0
2015-Jan-26 08:33N 34°07' E 135°08'0 0.0
2015-Jan-26 07:33N 34°07' E 135°08'0 0.0
2015-Jan-26 06:33N 34°07' E 135°08'6 6.0
2015-Jan-26 05:33N 34°12' E 135°05'9 9.3
2015-Jan-26 04:32N 34°22' E 135°07'10 9.7
2015-Jan-26 03:32N 34°29' E 135°15'10 9.9
2015-Jan-26 02:32N 34°33' E 135°25'1 0.8
2015-Jan-26 01:33N 34°33' E 135°26'0 0.0
2015-Jan-26 00:32N 34°33' E 135°26'0 0.0
2015-Jan-25 23:33N 34°33' E 135°26'5 3.8
2015-Jan-25 22:17N 34°33' E 135°21'2 1.8
2015-Jan-25 21:26N 34°32' E 135°19'0 0.0
2015-Jan-25 20:26N 34°32' E 135°19'0 0.0
2015-Jan-25 19:14N 34°32' E 135°19'0 0.0
2015-Jan-25 18:32N 34°32' E 135°19'0 0.0
2015-Jan-25 17:20N 34°32' E 135°19'0 0.0
2015-Jan-25 16:20N 34°32' E 135°19'0 0.0
2015-Jan-25 15:14N 34°32' E 135°19'0 0.0
2015-Jan-25 14:32N 34°32' E 135°19'0 0.1
2015-Jan-25 13:32N 34°32' E 135°19'2 2.4
2015-Jan-25 12:33N 34°33' E 135°16'1111.2
2015-Jan-25 11:33N 34°36' E 135°03'  
2015-Jan-23 00:21N 34°39' E 134°50'1012.4
2015-Jan-22 23:33N 34°37' E 135°02'10 9.8
2015-Jan-22 22:33N 34°27' E 135°03'10 9.8
2015-Jan-22 21:31N 34°17' E 134°59'8 8.4
2015-Jan-22 20:33N 34°09' E 135°00'8 7.7
2015-Jan-22 19:29N 34°01' E 135°01'207 7.4
2015-Jan-21 15:24N 34°46' E 139°06'8 9.9
2015-Jan-21 14:33N 34°53' E 139°12'2010.1
2015-Jan-21 12:33N 35°03' E 139°33'1010.0
2015-Jan-21 11:33N 35°08' E 139°43'10 9.9
2015-Jan-21 10:33N 35°18' E 139°44'9 9.0
2015-Jan-21 09:33N 35°27' E 139°47'11 8.4
2015-Jan-21 08:13N 35°29' E 140°00'0 0.0
2015-Jan-20 22:29N 35°29' E 140°00'8 8.6
2015-Jan-20 21:32N 35°35' E 139°54'0 0.1
2015-Jan-20 18:29N 35°35' E 139°53'4 0.1
2015-Jan-19 11:15N 35°31' E 139°52'6 8.9
2015-Jan-19 10:33N 35°26' E 139°48'8 8.5
2015-Jan-19 09:33N 35°18' E 139°45'9 9.0
2015-Jan-19 08:33N 35°08' E 139°46'1010.1
2015-Jan-19 07:33N 35°01' E 139°38'  
Track history (hours):
 
Tides and Currents Weather Stations Pressure Air Temp Water Temp Dewpoint Dewpoint Depression Visibility Wind Speed Wind Dir Waves Ship Positions

Nissho Maru No.18

Last reported at 2015-Jan-28 08:20 UTC. Time now 2015-Jan-29 20:28 UTC.
Position N 34°36' E 134°53'.

Length 65 m; draft 4 m.

Type: Tanker. MMSI: 431500465.

Date/timePositionNaut miles runAvg speedWind from/ knotsBaromVisibWave heightAir tempDewpointWater temp
2015-Jan-28 08:20N 34°36' E 134°53'810.1
2015-Jan-28 07:33N 34°37' E 135°02'1010.3
2015-Jan-28 06:33N 34°34' E 135°14'9 8.6
2015-Jan-28 05:33N 34°33' E 135°25'0 0.0
2015-Jan-28 04:33N 34°33' E 135°25'0 0.0
2015-Jan-28 03:33N 34°33' E 135°25'0 0.0
2015-Jan-28 02:33N 34°33' E 135°25'0 0.0
2015-Jan-28 01:33N 34°33' E 135°25'3 2.9
2015-Jan-28 00:25N 34°33' E 135°21'2 1.8
2015-Jan-27 23:23N 34°32' E 135°19'0 0.0
2015-Jan-27 22:29N 34°32' E 135°19'0 0.0
2015-Jan-27 21:29N 34°32' E 135°19'0 0.0
2015-Jan-27 20:23N 34°32' E 135°19'0 0.0
2015-Jan-27 19:17N 34°32' E 135°19'0 0.0
2015-Jan-27 17:23N 34°32' E 135°19'0 0.0
2015-Jan-27 15:29N 34°32' E 135°19'0 0.0
2015-Jan-27 14:17N 34°32' E 135°19'0 0.0
2015-Jan-27 13:23N 34°32' E 135°19'0 0.0
2015-Jan-27 12:23N 34°32' E 135°19'0 0.0
2015-Jan-27 11:29N 34°32' E 135°19'0 0.1
2015-Jan-27 10:24N 34°32' E 135°19'8 9.3
2015-Jan-27 09:33N 34°35' E 135°10'1111.0
2015-Jan-27 08:34N 34°36' E 134°57'2 0.1
2015-Jan-26 16:34N 34°36' E 134°55'9 9.3
2015-Jan-26 15:33N 34°32' E 135°05'1110.9
2015-Jan-26 14:33N 34°21' E 135°04'1010.3
2015-Jan-26 13:33N 34°11' E 135°05'5 2.2
2015-Jan-26 11:22N 34°07' E 135°08'0 0.0
2015-Jan-26 10:32N 34°07' E 135°08'0 0.0
2015-Jan-26 09:25N 34°07' E 135°08'0 0.0
2015-Jan-26 08:33N 34°07' E 135°08'0 0.0
2015-Jan-26 07:33N 34°07' E 135°08'0 0.0
2015-Jan-26 06:33N 34°07' E 135°08'6 6.0
2015-Jan-26 05:33N 34°12' E 135°05'9 9.3
2015-Jan-26 04:32N 34°22' E 135°07'10 9.7
2015-Jan-26 03:32N 34°29' E 135°15'10 9.9
2015-Jan-26 02:32N 34°33' E 135°25'1 0.8
2015-Jan-26 01:33N 34°33' E 135°26'0 0.0
2015-Jan-26 00:32N 34°33' E 135°26'0 0.0
2015-Jan-25 23:33N 34°33' E 135°26'5 3.8
2015-Jan-25 22:17N 34°33' E 135°21'2 1.8
2015-Jan-25 21:26N 34°32' E 135°19'0 0.0
2015-Jan-25 20:26N 34°32' E 135°19'0 0.0
2015-Jan-25 19:14N 34°32' E 135°19'0 0.0
2015-Jan-25 18:32N 34°32' E 135°19'0 0.0
2015-Jan-25 17:20N 34°32' E 135°19'0 0.0
2015-Jan-25 16:20N 34°32' E 135°19'0 0.0
2015-Jan-25 15:14N 34°32' E 135°19'0 0.0
2015-Jan-25 14:32N 34°32' E 135°19'0 0.1
2015-Jan-25 13:32N 34°32' E 135°19'2 2.4
2015-Jan-25 12:33N 34°33' E 135°16'1111.2
2015-Jan-25 11:33N 34°36' E 135°03'  
2015-Jan-23 00:21N 34°39' E 134°50'1012.4
2015-Jan-22 23:33N 34°37' E 135°02'10 9.8
2015-Jan-22 22:33N 34°27' E 135°03'10 9.8
2015-Jan-22 21:31N 34°17' E 134°59'8 8.4
2015-Jan-22 20:33N 34°09' E 135°00'8 7.7
2015-Jan-22 19:29N 34°01' E 135°01'207 7.4
2015-Jan-21 15:24N 34°46' E 139°06'8 9.9
2015-Jan-21 14:33N 34°53' E 139°12'2010.1
2015-Jan-21 12:33N 35°03' E 139°33'1010.0
2015-Jan-21 11:33N 35°08' E 139°43'10 9.9
2015-Jan-21 10:33N 35°18' E 139°44'9 9.0
2015-Jan-21 09:33N 35°27' E 139°47'11 8.4
2015-Jan-21 08:13N 35°29' E 140°00'0 0.0
2015-Jan-20 22:29N 35°29' E 140°00'8 8.6
2015-Jan-20 21:32N 35°35' E 139°54'0 0.1
2015-Jan-20 18:29N 35°35' E 139°53'4 0.1
2015-Jan-19 11:15N 35°31' E 139°52'6 8.9
2015-Jan-19 10:33N 35°26' E 139°48'8 8.5
2015-Jan-19 09:33N 35°18' E 139°45'9 9.0
2015-Jan-19 08:33N 35°08' E 139°46'1010.1
2015-Jan-19 07:33N 35°01' E 139°38'  

Dump ship's entire track history